Time;durP1;ratioP1;P1;durP2;ratioP2;P2;SDS_P1;SDS_P2;PMS_P1;PMS_P2;Temp;Humidity;BMP_temperature;BMP_pressure;BME280_temperature;BME280_humidity;BME280_pressure;Samples;Min_cycle;Max_cycle;Signal;HPM_P1;HPM_P2
2022/03/25 00:01:22;;;;;;;51.70;31.83;;;;;;;14.24;32.85;102132.50;5096884;28;20519;-57
2022/03/25 00:03:50;;;;;;;50.88;29.00;;;;;;;14.16;33.16;102144.31;5096757;28;20051;-57
2022/03/25 00:06:17;;;;;;;52.72;30.60;;;;;;;13.98;33.22;102145.16;5096653;28;20052;-57
2022/03/25 00:08:45;;;;;;;50.95;30.27;;;;;;;14.04;33.13;102140.34;5096563;28;20489;-57
2022/03/25 00:11:12;;;;;;;49.95;30.20;;;;;;;14.07;33.18;102145.31;5096771;28;20052;-60
2022/03/25 00:13:39;;;;;;;50.70;30.42;;;;;;;13.96;33.01;102143.81;5090805;28;20060;-57
2022/03/25 00:16:07;;;;;;;51.33;30.13;;;;;;;13.86;33.29;102146.75;5075676;28;20056;-61
2022/03/25 00:18:34;;;;;;;50.95;29.90;;;;;;;13.97;33.03;102146.28;5076191;28;20052;-61
2022/03/25 00:21:02;;;;;;;54.97;29.95;;;;;;;13.99;33.03;102148.75;5076532;28;20048;-61
2022/03/25 00:23:30;;;;;;;55.83;30.75;;;;;;;13.93;33.12;102144.44;5076107;28;20071;-62
2022/03/25 00:25:57;;;;;;;52.00;29.95;;;;;;;13.94;33.28;102140.53;5076189;28;20045;-61
2022/03/25 00:28:24;;;;;;;53.58;31.48;;;;;;;13.89;33.16;102137.84;5075881;28;20056;-61
2022/03/25 00:30:52;;;;;;;57.05;31.55;;;;;;;13.74;33.24;102140.84;5076145;28;20484;-61
2022/03/25 00:33:19;;;;;;;51.83;30.00;;;;;;;13.82;33.32;102142.94;5075942;28;20396;-61
2022/03/25 00:35:47;;;;;;;53.45;30.58;;;;;;;13.86;33.31;102136.47;5074635;28;20055;-61
2022/03/25 00:38:14;;;;;;;53.50;30.00;;;;;;;13.69;33.36;102141.72;5074510;28;20071;-62
2022/03/25 00:40:43;;;;;;;54.20;30.55;;;;;;;13.53;33.66;102143.91;5076078;28;20056;-62
2022/03/25 00:43:11;;;;;;;54.08;31.05;;;;;;;13.42;33.76;102144.34;5094870;28;20067;-61
2022/03/25 00:45:39;;;;;;;54.00;30.05;;;;;;;13.46;33.60;102145.38;5094903;28;20048;-61
2022/03/25 00:48:07;;;;;;;54.40;31.33;;;;;;;13.59;33.46;102141.91;5094194;28;20069;-62
2022/03/25 00:50:35;;;;;;;51.10;30.45;;;;;;;13.58;33.42;102140.25;5094818;28;20044;-61
2022/03/25 00:53:02;;;;;;;49.08;30.58;;;;;;;13.50;33.46;102135.38;5095843;28;20523;-63
2022/03/25 00:55:30;;;;;;;51.28;29.52;;;;;;;13.49;33.59;102139.28;5095767;28;20488;-62
2022/03/25 00:58:00;;;;;;;58.70;30.98;;;;;;;13.47;33.62;102144.28;5076651;28;20056;-61
2022/03/25 01:00:28;;;;;;;49.08;29.02;;;;;;;13.71;33.22;102138.66;5094448;28;20048;-61
2022/03/25 01:02:55;;;;;;;51.92;30.95;;;;;;;13.74;33.16;102140.84;5093999;28;20060;-61
2022/03/25 01:05:23;;;;;;;49.05;30.15;;;;;;;13.73;33.20;102134.50;5094581;28;20063;-61
2022/03/25 01:07:50;;;;;;;51.00;29.63;;;;;;;13.82;33.34;102143.78;5095070;28;20059;-61
2022/03/25 01:10:18;;;;;;;49.55;29.58;;;;;;;13.83;33.14;102145.41;5095726;28;20055;-62
2022/03/25 01:12:47;;;;;;;53.20;32.13;;;;;;;13.36;33.94;102140.84;5094548;28;20052;-63
2022/03/25 01:15:15;;;;;;;50.22;30.92;;;;;;;13.58;33.64;102137.50;5076908;28;20045;-62
2022/03/25 01:17:42;;;;;;;55.72;30.98;;;;;;;13.70;33.68;102137.03;5073513;28;20158;-62
2022/03/25 01:20:10;;;;;;;50.50;30.75;;;;;;;13.48;33.65;102134.84;5075567;28;20056;-63
2022/03/25 01:22:37;;;;;;;51.78;31.08;;;;;;;13.47;34.00;102125.75;5075814;28;20072;-62
2022/03/25 01:25:07;;;;;;;51.08;30.38;;;;;;;13.15;34.26;102125.63;5075439;28;20062;-64
2022/03/25 01:27:35;;;;;;;;;;;;;;;13.03;34.33;102129.91;5074052;28;20412;-61
2022/03/25 01:30:04;;;;;;;58.38;31.65;;;;;;;13.15;34.32;102127.56;5075231;28;19920;-61
2022/03/25 01:32:31;;;;;;;53.45;30.42;;;;;;;13.09;34.60;102128.75;5073838;28;20052;-63
2022/03/25 01:35:12;;;;;;;50.83;30.45;;;;;;;13.10;34.72;102117.38;5073959;28;20044;-61
2022/03/25 01:37:41;;;;;;;58.08;33.13;;;;;;;12.80;35.11;102114.94;5057909;28;20074;-62
2022/03/25 01:40:09;;;;;;;54.83;31.85;;;;;;;12.61;35.51;102116.81;5075022;28;20052;-61
2022/03/25 01:42:39;;;;;;;51.75;31.33;;;;;;;12.86;35.21;102119.31;5092644;28;20048;-62
2022/03/25 01:45:09;;;;;;;54.88;31.40;;;;;;;12.96;35.11;102119.19;5094499;28;20048;-61
2022/03/25 01:47:38;;;;;;;;;;;;;;;12.99;34.98;102110.28;5094998;28;20055;-62
2022/03/25 01:50:19;;;;;;;57.47;30.90;;;;;;;13.19;34.66;102112.84;5093894;28;19931;-62
2022/03/25 01:52:48;;;;;;;63.10;32.13;;;;;;;13.28;34.49;102111.06;5093378;28;20067;-61
2022/03/25 01:55:18;;;;;;;55.08;32.72;;;;;;;13.19;34.84;102109.25;5095138;28;20043;-61
2022/03/25 01:57:46;;;;;;;53.70;31.10;;;;;;;12.88;35.05;102103.25;5094796;28;20051;-61
2022/03/25 02:00:15;;;;;;;53.55;31.67;;;;;;;12.97;35.27;102112.53;5093739;28;20052;-59
2022/03/25 02:02:49;;;;;;;57.65;32.67;;;;;;;13.12;35.11;102111.56;5095098;28;20048;-60
2022/03/25 02:05:17;;;;;;;54.10;31.60;;;;;;;12.69;35.78;102112.59;5059978;28;20052;-62
2022/03/25 02:07:45;;;;;;;61.92;31.17;;;;;;;12.95;35.50;102112.03;5093605;28;20051;-62
2022/03/25 02:10:13;;;;;;;55.47;31.27;;;;;;;12.95;35.19;102108.41;5093746;28;20055;-62
2022/03/25 02:12:42;;;;;;;54.78;32.55;;;;;;;12.93;35.46;102108.72;5093865;28;20048;-63
2022/03/25 02:15:10;;;;;;;64.03;31.25;;;;;;;12.73;35.81;102110.88;5076910;28;20057;-63
2022/03/25 02:17:37;;;;;;;56.28;31.90;;;;;;;12.55;36.33;102112.50;5073144;28;20527;-62
2022/03/25 02:20:09;;;;;;;52.97;31.05;;;;;;;12.59;36.19;102112.72;5073479;28;20048;-61
2022/03/25 02:22:37;;;;;;;56.55;31.50;;;;;;;12.92;35.64;102111.78;5073299;28;20060;-62
2022/03/25 02:25:08;;;;;;;58.47;32.58;;;;;;;12.77;35.94;102110.00;5056260;28;20072;-62
2022/03/25 02:27:37;;;;;;;53.40;31.85;;;;;;;12.78;35.98;102111.66;5074491;28;20048;-61
2022/03/25 02:30:07;;;;;;;59.38;33.10;;;;;;;12.54;36.28;102110.81;5071663;28;20060;-56
2022/03/25 02:32:35;;;;;;;62.30;32.70;;;;;;;12.89;35.83;102106.81;5074347;28;20551;-59
2022/03/25 02:35:03;;;;;;;53.50;32.05;;;;;;;12.37;36.63;102113.22;5072967;28;20049;-61
2022/03/25 02:37:31;;;;;;;53.83;30.90;;;;;;;12.30;36.84;102115.50;5074392;28;20061;-55
2022/03/25 02:39:58;;;;;;;64.13;31.67;;;;;;;12.14;37.56;102116.75;5072807;28;20048;-56
2022/03/25 02:42:26;;;;;;;58.60;32.03;;;;;;;12.20;37.31;102116.41;5088938;28;20048;-60
2022/03/25 02:44:53;;;;;;;56.10;32.70;;;;;;;12.46;36.99;102120.56;5093899;28;20055;-59
2022/03/25 02:47:20;;;;;;;66.40;33.40;;;;;;;12.45;36.95;102118.94;5093485;28;20052;-57
2022/03/25 02:49:48;;;;;;;54.40;32.45;;;;;;;12.58;36.71;102122.13;5078618;28;20538;-57
2022/03/25 02:52:15;;;;;;;58.28;32.75;;;;;;;12.57;36.96;102120.47;5073193;28;20056;-62
2022/03/25 02:54:43;;;;;;;60.88;31.98;;;;;;;12.31;37.04;102120.72;5074266;28;20463;-61
2022/03/25 02:57:10;;;;;;;59.20;32.63;;;;;;;12.36;37.11;102122.63;5073934;28;20044;-62
2022/03/25 02:59:38;;;;;;;60.05;32.33;;;;;;;11.93;38.06;102123.53;5073841;28;20055;-61
2022/03/25 03:02:05;;;;;;;62.63;33.85;;;;;;;11.79;38.34;102117.03;5074258;28;20056;-61
2022/03/25 03:04:33;;;;;;;52.25;32.95;;;;;;;11.77;38.15;102127.56;5074205;28;20067;-61
2022/03/25 03:07:01;;;;;;;60.47;32.33;;;;;;;11.95;37.98;102122.16;5077736;28;20428;-61
2022/03/25 03:09:28;;;;;;;59.78;31.83;;;;;;;12.25;37.44;102118.31;5077384;28;20052;-64
2022/03/25 03:11:55;;;;;;;57.35;31.98;;;;;;;12.41;37.31;102114.28;5077851;28;20059;-62
2022/03/25 03:14:23;;;;;;;58.40;32.45;;;;;;;12.35;37.51;102118.19;5077695;28;20079;-62
2022/03/25 03:16:50;;;;;;;61.50;33.28;;;;;;;12.52;37.38;102120.53;5075954;28;20057;-62
2022/03/25 03:19:17;;;;;;;59.80;33.13;;;;;;;12.27;37.13;102116.09;5077258;28;20040;-57
2022/03/25 03:21:46;;;;;;;65.35;33.05;;;;;;;12.22;37.65;102118.91;5076423;28;20060;-61
2022/03/25 03:24:13;;;;;;;60.22;32.13;;;;;;;12.08;37.80;102115.97;5077367;28;20055;-62
2022/03/25 03:26:40;;;;;;;62.42;33.63;;;;;;;11.96;38.05;102112.75;5076261;28;20055;-61
2022/03/25 03:29:08;;;;;;;65.20;32.22;;;;;;;11.75;38.56;102115.97;5076115;28;20044;-61
2022/03/25 03:31:36;;;;;;;62.50;32.67;;;;;;;11.97;38.17;102108.06;5077690;28;20064;-62
2022/03/25 03:34:03;;;;;;;55.70;32.72;;;;;;;11.82;38.32;102120.03;5077213;28;20048;-62
2022/03/25 03:36:30;;;;;;;57.10;31.60;;;;;;;11.47;39.30;102116.69;5077564;28;20040;-62
2022/03/25 03:39:01;;;;;;;59.40;32.50;;;;;;;11.71;38.89;102117.66;5077032;28;20051;-63
2022/03/25 03:41:28;;;;;;;54.30;30.98;;;;;;;11.96;38.44;102106.44;5085192;28;20052;-62
2022/03/25 03:43:55;;;;;;;58.45;32.30;;;;;;;12.04;38.32;102105.78;5097298;28;20140;-62
2022/03/25 03:46:23;;;;;;;61.78;32.33;;;;;;;11.86;38.57;102115.59;5097457;28;20503;-60
2022/03/25 03:48:50;;;;;;;56.78;32.45;;;;;;;12.07;38.53;102110.72;5097337;28;20040;-57
2022/03/25 03:51:17;;;;;;;54.10;32.40;;;;;;;12.07;38.29;102105.19;5095550;28;20056;-57
2022/03/25 03:53:45;;;;;;;58.60;32.33;;;;;;;12.09;38.15;102105.75;5097292;28;20059;-61
2022/03/25 03:56:12;;;;;;;64.70;32.95;;;;;;;12.01;38.61;102111.91;5097255;28;20423;-56
2022/03/25 03:58:40;;;;;;;58.50;32.10;;;;;;;11.77;38.92;102105.47;5095783;28;20044;-52
2022/03/25 04:01:07;;;;;;;57.60;32.28;;;;;;;11.68;39.30;102113.50;5095963;28;20055;-63
2022/03/25 04:03:35;;;;;;;57.60;31.98;;;;;;;11.77;38.90;102111.78;5095803;28;20048;-58
2022/03/25 04:06:03;;;;;;;56.88;33.30;;;;;;;11.83;38.97;102118.94;5095979;28;20052;-56
2022/03/25 04:08:30;;;;;;;59.85;32.83;;;;;;;11.95;38.76;102113.03;5095102;28;20048;-57
2022/03/25 04:10:58;;;;;;;61.38;34.10;;;;;;;11.58;39.38;102116.31;5062603;28;20060;-59
2022/03/25 04:13:25;;;;;;;61.90;32.63;;;;;;;11.54;39.76;102112.47;5092532;28;20044;-60
2022/03/25 04:15:53;;;;;;;62.28;32.85;;;;;;;11.57;39.67;102116.63;5076429;28;20049;-59
2022/03/25 04:18:20;;;;;;;58.15;32.60;;;;;;;11.47;39.77;102113.91;5076321;28;20051;-59
2022/03/25 04:20:49;;;;;;;57.03;31.85;;;;;;;11.83;39.27;102118.09;5075580;28;20052;-57
2022/03/25 04:23:19;;;;;;;53.50;31.75;;;;;;;11.45;39.73;102111.47;5075353;28;20404;-62
2022/03/25 04:25:46;;;;;;;67.20;32.78;;;;;;;11.28;40.19;102122.00;5074665;28;20052;-62
2022/03/25 04:28:14;;;;;;;62.33;32.20;;;;;;;11.19;40.54;102112.72;5076303;28;20044;-63
2022/03/25 04:30:41;;;;;;;58.25;32.17;;;;;;;11.49;40.01;102114.47;5058795;28;20056;-62
2022/03/25 04:33:08;;;;;;;62.53;31.67;;;;;;;11.12;40.74;102126.78;5076207;28;20060;-62
2022/03/25 04:35:36;;;;;;;54.42;31.67;;;;;;;11.43;40.10;102121.09;5076064;28;20063;-63
2022/03/25 04:38:04;;;;;;;58.97;31.88;;;;;;;11.46;39.94;102120.53;5075456;28;20044;-63
2022/03/25 04:40:32;;;;;;;56.65;31.30;;;;;;;11.32;40.28;102114.81;5074227;28;20057;-63
2022/03/25 04:43:00;;;;;;;60.78;32.58;;;;;;;11.48;39.98;102124.66;5096373;28;20679;-60
2022/03/25 04:45:29;;;;;;;63.20;32.13;;;;;;;11.38;40.20;102125.53;5095232;28;20052;-60
2022/03/25 04:47:57;;;;;;;61.90;32.80;;;;;;;11.39;40.50;102126.38;5096024;28;20036;-61
2022/03/25 04:50:25;;;;;;;59.47;33.60;;;;;;;11.27;40.59;102129.47;5095968;28;20051;-55
2022/03/25 04:52:52;;;;;;;60.95;31.85;;;;;;;11.29;40.58;102129.19;5095015;28;20483;-59
2022/03/25 04:55:20;;;;;;;60.85;32.55;;;;;;;11.13;40.92;102139.47;5096135;28;20395;-63
2022/03/25 04:57:48;;;;;;;63.47;32.88;;;;;;;11.06;41.06;102138.94;5096102;28;20055;-64
2022/03/25 05:00:16;;;;;;;63.97;33.60;;;;;;;11.10;41.16;102131.78;5094490;28;20621;-62
2022/03/25 05:02:44;;;;;;;64.30;33.67;;;;;;;10.94;41.53;102141.22;5095966;28;20490;-59
2022/03/25 05:05:13;;;;;;;55.67;32.03;;;;;;;11.35;40.85;102142.66;5096208;28;20407;-62
2022/03/25 05:07:42;;;;;;;63.10;33.95;;;;;;;11.30;40.60;102139.09;5095906;28;20515;-65
2022/03/25 05:10:11;;;;;;;64.72;33.75;;;;;;;11.29;40.92;102146.56;5095651;28;20052;-63
2022/03/25 05:12:43;;;;;;;59.75;33.55;;;;;;;10.98;41.43;102145.03;5094456;28;20534;-59
2022/03/25 05:15:11;;;;;;;67.15;33.80;;;;;;;11.14;41.44;102145.81;5077927;28;20051;-57
2022/03/25 05:17:46;;;;;;;72.28;32.67;;;;;;;11.26;41.22;102149.06;5075797;28;20044;-58
2022/03/25 05:20:15;;;;;;;59.97;31.85;;;;;;;11.34;41.18;102149.31;5075567;28;20049;-57
2022/03/25 05:22:43;;;;;;;55.22;32.33;;;;;;;11.21;41.03;102149.91;5075246;28;20435;-58
2022/03/25 05:25:10;;;;;;;58.13;32.42;;;;;;;10.77;41.92;102149.00;5074311;28;20491;-60
2022/03/25 05:27:48;;;;;;;58.65;31.50;;;;;;;10.88;41.90;102149.78;5075250;28;20044;-60
2022/03/25 05:30:19;;;;;;;61.08;32.80;;;;;;;10.71;42.25;102152.84;5075059;28;20519;-60
2022/03/25 05:32:46;;;;;;;61.72;32.80;;;;;;;10.85;41.84;102150.31;5075301;28;20496;-58
2022/03/25 05:35:29;;;;;;;61.67;34.22;;;;;;;10.84;42.10;102149.53;5075349;28;20519;-60
2022/03/25 05:37:57;;;;;;;72.28;32.97;;;;;;;11.06;41.75;102143.63;5072893;28;20056;-58
2022/03/25 05:40:25;;;;;;;59.90;32.15;;;;;;;11.03;41.77;102146.97;5073835;28;20045;-59
2022/03/25 05:42:53;;;;;;;67.28;34.22;;;;;;;11.22;41.31;102156.25;5093495;28;20074;-61
2022/03/25 05:45:22;;;;;;;62.92;34.42;;;;;;;10.80;42.21;102153.09;5093653;28;20052;-59
2022/03/25 05:47:49;;;;;;;64.78;33.50;;;;;;;11.21;41.53;102160.94;5095060;28;20067;-59
2022/03/25 05:50:17;;;;;;;67.43;34.08;;;;;;;10.96;41.88;102152.78;5093456;28;20056;-59
2022/03/25 05:52:45;;;;;;;67.93;33.42;;;;;;;10.96;42.32;102149.19;5095081;28;20051;-60
2022/03/25 05:55:13;;;;;;;63.20;33.72;;;;;;;11.21;41.72;102152.66;5093990;28;20510;-55
2022/03/25 05:57:44;;;;;;;59.85;33.50;;;;;;;11.34;41.26;102156.75;5095259;28;20055;-54
2022/03/25 06:00:13;;;;;;;58.85;34.58;;;;;;;11.16;41.71;102154.63;5094629;28;20048;-62
2022/03/25 06:02:43;;;;;;;67.10;33.47;;;;;;;11.34;41.47;102162.28;5094985;28;20056;-61
2022/03/25 06:05:11;;;;;;;66.22;33.63;;;;;;;11.28;41.83;102163.38;5093856;28;20059;-62
2022/03/25 06:07:42;;;;;;;67.45;33.15;;;;;;;11.08;41.93;102166.25;5095110;28;20048;-62
2022/03/25 06:10:09;;;;;;;;;;;;;;;11.03;41.95;102166.25;5095194;28;20063;-62
2022/03/25 06:12:37;;;;;;;60.58;32.22;;;;;;;10.97;42.25;102170.13;5094986;28;19927;-64
2022/03/25 06:15:05;;;;;;;64.80;35.08;;;;;;;10.81;42.66;102168.56;5076758;28;20053;-61
2022/03/25 06:17:40;;;;;;;66.03;34.47;;;;;;;10.92;42.05;102178.41;5074306;28;20048;-62
2022/03/25 06:20:09;;;;;;;66.03;34.72;;;;;;;10.93;42.21;102186.41;5074004;28;20558;-62
2022/03/25 06:22:39;;;;;;;67.63;33.97;;;;;;;10.95;42.43;102181.44;5074659;28;20115;-63
2022/03/25 06:25:11;;;;;;;67.65;36.25;;;;;;;10.72;42.61;102192.25;5073851;28;20048;-63
2022/03/25 06:27:47;;;;;;;70.03;34.15;;;;;;;10.54;43.12;102190.91;5075136;28;20053;-59
2022/03/25 06:30:14;;;;;;;71.78;33.97;;;;;;;10.62;43.11;102187.59;5074441;28;20055;-57
2022/03/25 06:32:42;;;;;;;79.32;34.55;;;;;;;11.00;42.48;102188.88;5073116;28;20060;-63
2022/03/25 06:35:10;;;;;;;68.75;32.38;;;;;;;11.23;42.38;102188.22;5074577;28;20044;-60
2022/03/25 06:37:37;;;;;;;72.57;33.67;;;;;;;11.21;42.38;102190.44;5074443;28;20053;-59
2022/03/25 06:40:07;;;;;;;61.95;33.35;;;;;;;11.09;42.72;102199.03;5076495;28;20051;-57
2022/03/25 06:42:35;;;;;;;66.72;34.88;;;;;;;10.89;42.76;102201.03;5095760;28;20452;-55
2022/03/25 06:45:05;;;;;;;65.63;34.95;;;;;;;10.93;42.76;102194.69;5098500;28;20052;-58
2022/03/25 06:47:33;;;;;;;83.00;40.40;;;;;;;11.15;42.55;102195.19;5098123;28;20067;-58
2022/03/25 06:50:05;;;;;;;64.65;34.70;;;;;;;11.60;41.71;102198.81;5098217;28;20048;-59
2022/03/25 06:52:33;;;;;;;62.50;34.70;;;;;;;11.00;42.52;102200.72;5098267;28;20096;-57
2022/03/25 06:55:00;;;;;;;69.00;34.38;;;;;;;10.93;42.67;102205.69;5096731;28;20059;-57
2022/03/25 06:57:28;;;;;;;63.35;34.42;;;;;;;10.98;42.02;102202.94;5098317;28;20055;-56
2022/03/25 06:59:56;;;;;;;63.65;33.60;;;;;;;11.11;42.14;102207.03;5098003;28;20048;-58
2022/03/25 07:02:23;;;;;;;62.03;35.08;;;;;;;11.05;42.07;102208.97;5096438;28;20062;-59
2022/03/25 07:04:51;;;;;;;66.68;34.90;;;;;;;10.94;42.40;102212.06;5098143;28;20044;-56
2022/03/25 07:07:21;;;;;;;67.63;35.97;;;;;;;10.73;42.77;102211.28;5096930;28;20067;-57
2022/03/25 07:09:48;;;;;;;69.45;36.00;;;;;;;10.64;42.95;102210.19;5098005;28;20365;-57
2022/03/25 07:12:17;;;;;;;71.60;35.63;;;;;;;10.95;42.70;102203.50;5096494;28;20056;-58
2022/03/25 07:14:44;;;;;;;67.97;36.42;;;;;;;10.81;42.71;102212.66;5083502;28;20048;-57
2022/03/25 07:17:11;;;;;;;67.78;35.28;;;;;;;10.74;42.92;102210.16;5077907;28;20048;-57
2022/03/25 07:19:39;;;;;;;70.22;33.97;;;;;;;10.83;42.77;102222.28;5077409;28;20040;-58
2022/03/25 07:22:06;;;;;;;66.22;35.00;;;;;;;10.75;42.84;102216.50;5076832;28;20500;-58
2022/03/25 07:24:33;;;;;;;68.80;35.60;;;;;;;10.67;43.11;102217.88;5077505;28;20449;-58
2022/03/25 07:27:01;;;;;;;63.30;35.78;;;;;;;10.71;42.90;102220.91;5077620;28;20055;-58
2022/03/25 07:29:28;;;;;;;72.20;35.55;;;;;;;10.76;43.04;102224.50;5077288;28;20049;-55
2022/03/25 07:31:56;;;;;;;70.70;35.85;;;;;;;10.76;42.79;102232.75;5077292;28;20087;-58
2022/03/25 07:34:23;;;;;;;87.13;37.72;;;;;;;10.64;42.91;102232.22;5077344;28;20078;-57
2022/03/25 07:36:50;;;;;;;66.47;35.85;;;;;;;11.07;42.36;102228.03;5076939;28;20059;-58
2022/03/25 07:39:18;;;;;;;76.13;37.50;;;;;;;11.04;42.30;102232.16;5076965;28;20051;-58
2022/03/25 07:41:45;;;;;;;75.15;36.78;;;;;;;11.01;42.11;102238.25;5086158;28;20055;-57
2022/03/25 07:44:12;;;;;;;65.65;35.10;;;;;;;11.07;42.09;102242.63;5097342;28;20517;-59
2022/03/25 07:46:40;;;;;;;75.90;37.22;;;;;;;11.21;41.74;102237.34;5097508;28;20040;-58
2022/03/25 07:49:08;;;;;;;67.50;37.00;;;;;;;11.02;41.87;102241.78;5097313;28;20059;-56
2022/03/25 07:51:35;;;;;;;72.43;37.50;;;;;;;10.84;42.51;102248.75;5096298;28;20056;-54
2022/03/25 07:54:02;;;;;;;71.65;37.08;;;;;;;11.27;41.86;102238.97;5097067;28;20066;-58
2022/03/25 07:56:30;;;;;;;66.13;37.92;;;;;;;11.45;41.14;102240.28;5096155;28;20499;-58
2022/03/25 07:58:59;;;;;;;67.45;35.95;;;;;;;11.54;40.76;102250.44;5097197;28;20549;-59
2022/03/25 08:01:28;;;;;;;68.28;37.53;;;;;;;11.64;40.70;102242.19;5096486;28;20162;-58
2022/03/25 08:03:56;;;;;;;67.57;37.58;;;;;;;11.69;40.32;102244.91;5096859;28;20055;-58
2022/03/25 08:06:23;;;;;;;70.88;37.55;;;;;;;11.75;40.33;102257.56;5095842;28;20048;-56
2022/03/25 08:08:50;;;;;;;74.85;38.95;;;;;;;11.71;40.14;102252.91;5096434;28;20070;-57
2022/03/25 08:11:20;;;;;;;79.47;40.45;;;;;;;11.51;40.38;102248.25;5096569;28;20044;-60
2022/03/25 08:13:48;;;;;;;68.80;37.63;;;;;;;12.07;39.79;102243.28;5090103;28;20044;-59
2022/03/25 08:16:16;;;;;;;73.88;37.40;;;;;;;12.23;39.46;102240.16;5076367;28;20096;-60
2022/03/25 08:18:44;;;;;;;72.75;39.03;;;;;;;12.21;39.29;102245.13;5076371;28;20056;-58
2022/03/25 08:21:11;;;;;;;71.35;37.65;;;;;;;12.36;39.06;102246.97;5076317;28;20049;-55
2022/03/25 08:29:11;;;;;;;69.93;37.42;;;;;;;12.46;38.64;102247.69;5074631;28;20052;-57
2022/03/25 08:31:45;;;;;;;76.32;39.00;;;;;;;12.36;38.41;102247.78;5075775;28;20056;-59
2022/03/25 08:34:15;;;;;;;76.65;39.67;;;;;;;12.40;38.72;102248.03;5075648;28;20052;-56
2022/03/25 08:36:43;;;;;;;70.30;38.72;;;;;;;12.67;38.12;102245.59;5076297;28;20060;-57
2022/03/25 08:39:11;;;;;;;78.10;39.08;;;;;;;12.51;38.05;102249.59;5074194;28;20056;-59
2022/03/25 08:41:39;;;;;;;69.95;38.65;;;;;;;12.65;37.94;102250.59;5085510;28;20036;-57
2022/03/25 08:44:07;;;;;;;79.35;38.95;;;;;;;12.69;37.55;102248.91;5096023;28;20060;-59
2022/03/25 08:46:35;;;;;;;70.50;39.03;;;;;;;12.76;37.87;102240.25;5094998;28;20048;-57
2022/03/25 08:49:07;;;;;;;72.78;39.38;;;;;;;12.81;37.43;102249.34;5095957;28;20352;-54
2022/03/25 08:51:34;;;;;;;75.35;38.33;;;;;;;12.97;37.02;102250.00;5096041;28;20537;-59
2022/03/25 08:54:01;;;;;;;75.93;39.03;;;;;;;13.07;37.12;102245.22;5095858;28;20048;-61
2022/03/25 08:56:29;;;;;;;66.80;40.25;;;;;;;13.32;36.74;102244.94;5095844;28;20063;-61
2022/03/25 08:58:58;;;;;;;70.25;39.30;;;;;;;13.40;36.62;102249.00;5078231;28;20407;-58
2022/03/25 09:01:26;;;;;;;73.25;40.67;;;;;;;13.52;36.17;102249.41;5095829;28;20040;-57
2022/03/25 09:03:54;;;;;;;66.97;38.83;;;;;;;13.57;35.89;102250.16;5094955;28;20059;-60
2022/03/25 09:06:21;;;;;;;78.22;41.15;;;;;;;13.57;35.84;102246.56;5095992;28;20052;-58
2022/03/25 09:08:50;;;;;;;76.43;41.85;;;;;;;13.75;36.05;102231.94;5077706;28;20073;-56
2022/03/25 09:11:20;;;;;;;73.20;40.47;;;;;;;13.68;35.60;102245.31;5094316;28;20051;-59
2022/03/25 09:13:47;;;;;;;66.53;40.55;;;;;;;13.80;35.32;102251.25;5088673;28;20075;-55
2022/03/25 09:16:16;;;;;;;74.22;39.83;;;;;;;13.90;35.19;102244.72;5075577;28;20052;-59
2022/03/25 09:18:44;;;;;;;65.03;38.77;;;;;;;14.19;34.77;102243.47;5075498;28;20055;-60
2022/03/25 09:21:12;;;;;;;75.40;41.00;;;;;;;14.12;34.52;102240.25;5074002;28;20048;-57
2022/03/25 09:23:39;;;;;;;76.90;40.30;;;;;;;14.08;34.31;102247.53;5075113;28;20380;-56
2022/03/25 09:26:07;;;;;;;76.75;42.45;;;;;;;14.16;34.16;102237.69;5075094;28;20040;-57
2022/03/25 09:28:34;;;;;;;67.47;39.45;;;;;;;14.20;34.00;102239.59;5075126;28;20127;-58
2022/03/25 09:31:02;;;;;;;74.35;40.65;;;;;;;14.43;33.50;102235.09;5075165;28;20049;-56
2022/03/25 09:33:29;;;;;;;66.72;41.33;;;;;;;14.42;33.54;102233.44;5073499;28;20052;-58
2022/03/25 09:35:57;;;;;;;75.57;41.03;;;;;;;14.51;33.31;102234.38;5073601;28;20407;-56
2022/03/25 09:38:25;;;;;;;71.88;42.42;;;;;;;14.53;33.50;102229.38;5075117;28;20052;-58
2022/03/25 09:41:01;;;;;;;75.85;41.40;;;;;;;14.60;33.19;102232.56;5077329;28;20044;-58
2022/03/25 09:43:29;;;;;;;67.28;40.95;;;;;;;14.71;32.50;102238.78;5095072;28;20052;-59
2022/03/25 09:45:56;;;;;;;64.18;41.55;;;;;;;14.66;32.59;102232.19;5095152;28;20510;-58
2022/03/25 09:48:24;;;;;;;66.82;40.38;;;;;;;14.77;32.74;102234.78;5095144;28;20051;-60
2022/03/25 09:50:51;;;;;;;70.00;41.65;;;;;;;14.89;32.45;102235.13;5094999;28;20043;-59
2022/03/25 09:53:39;;;;;;;69.47;42.63;;;;;;;15.10;32.13;102241.94;5080086;28;20415;-58
2022/03/25 09:56:06;;;;;;;70.82;43.17;;;;;;;15.06;32.21;102243.69;5093714;28;20511;-56
2022/03/25 09:58:34;;;;;;;66.55;42.20;;;;;;;15.12;31.90;102239.66;5093531;28;20051;-61
2022/03/25 10:01:01;;;;;;;70.13;42.30;;;;;;;15.14;31.81;102238.25;5095033;28;20044;-60
2022/03/25 10:03:36;;;;;;;71.78;42.95;;;;;;;15.21;32.16;102241.44;5094742;28;20067;-57
2022/03/25 10:06:10;;;;;;;66.25;41.72;;;;;;;15.16;31.96;102237.94;5095070;28;20047;-59
2022/03/25 10:08:44;;;;;;;70.63;42.08;;;;;;;15.30;31.85;102236.81;5094788;28;20063;-59
2022/03/25 10:11:18;;;;;;;68.20;42.92;;;;;;;15.59;31.61;102228.19;5094767;28;20044;-58
2022/03/25 10:13:45;;;;;;;79.28;43.47;;;;;;;15.65;31.74;102226.94;5088529;28;20063;-61
2022/03/25 10:16:54;;;;;;;70.72;43.50;;;;;;;15.76;31.50;102231.13;5078707;28;20053;-58
2022/03/25 10:19:25;;;;;;;65.82;42.50;;;;;;;15.72;31.16;102230.13;5059375;28;20055;-60
2022/03/25 10:21:58;;;;;;;70.53;42.65;;;;;;;15.66;31.43;102218.28;5078422;28;20855;-60
2022/03/25 10:24:44;;;;;;;74.78;42.67;;;;;;;15.59;31.50;102223.44;5078352;28;20053;-60
2022/03/25 10:27:22;;;;;;;79.07;43.72;;;;;;;15.59;31.67;102217.91;5078577;28;20055;-60
2022/03/25 10:29:50;;;;;;;70.85;42.53;;;;;;;15.56;31.38;102223.25;5078464;28;20040;-59
2022/03/25 10:32:20;;;;;;;71.53;41.75;;;;;;;15.83;31.31;102227.94;5078035;28;20056;-59
2022/03/25 10:34:59;;;;;;;;;;;;;;;15.88;30.67;102225.06;5077721;28;20044;-60
2022/03/25 10:37:28;;;;;;;76.05;41.85;;;;;;;15.82;31.04;102216.00;5060002;28;19943;-58
2022/03/25 10:39:55;;;;;;;66.65;44.08;;;;;;;15.78;31.12;102221.38;5078403;28;20049;-59
2022/03/25 10:42:23;;;;;;;79.20;43.83;;;;;;;15.94;31.01;102212.66;5092372;28;20052;-57
2022/03/25 10:44:50;;;;;;;79.28;45.30;;;;;;;16.11;31.09;102223.97;5098590;28;20052;-59
2022/03/25 10:47:24;;;;;;;72.32;44.78;;;;;;;16.24;30.62;102206.41;5098661;28;20048;-58
2022/03/25 10:49:52;;;;;;;72.07;43.85;;;;;;;16.19;29.87;102220.41;5098684;28;20056;-59
2022/03/25 10:52:20;;;;;;;68.97;41.97;;;;;;;16.11;29.96;102210.88;5098130;28;20055;-60
2022/03/25 10:55:17;;;;;;;63.40;41.33;;;;;;;16.12;29.60;102212.53;5098801;28;20048;-57
2022/03/25 10:57:55;;;;;;;62.60;42.03;;;;;;;16.09;29.76;102218.69;5098261;28;20040;-57
2022/03/25 11:00:24;;;;;;;64.72;42.45;;;;;;;16.22;29.93;102208.66;5098256;28;20056;-59
2022/03/25 11:02:52;;;;;;;65.18;43.47;;;;;;;16.21;29.77;102216.22;5096405;28;20491;-57
2022/03/25 11:05:21;;;;;;;71.05;44.00;;;;;;;16.26;30.26;102206.91;5098366;28;20052;-59
2022/03/25 11:07:48;;;;;;;74.97;44.40;;;;;;;16.36;29.89;102210.25;5098029;28;20047;-60
2022/03/25 11:10:17;;;;;;;67.97;42.92;;;;;;;16.45;30.43;102207.53;5098249;28;20051;-58
2022/03/25 11:12:47;;;;;;;79.18;45.75;;;;;;;16.61;30.44;102200.47;5096502;28;20052;-57
2022/03/25 11:15:17;;;;;;;76.97;45.50;;;;;;;16.62;30.38;102196.53;5079468;28;20052;-57
2022/03/25 11:17:46;;;;;;;70.07;44.63;;;;;;;16.68;30.49;102204.44;5076352;28;20049;-60
2022/03/25 11:20:15;;;;;;;73.13;44.03;;;;;;;16.51;30.66;102207.13;5076461;28;20048;-59
2022/03/25 11:22:44;;;;;;;73.32;45.50;;;;;;;16.56;30.72;102190.28;5077207;28;20059;-58